sensor_id;sensor_type;location;lat;lon;timestamp;pressure;altitude;pressure_sealevel;temperature;humidity
4199;BME280;2113;50.946;14.610;2022-09-23T00:01:23;97641.78;;;7.30;66.47
4199;BME280;2113;50.946;14.610;2022-09-23T00:03:51;97637.34;;;7.40;65.67
4199;BME280;2113;50.946;14.610;2022-09-23T00:06:21;97645.13;;;7.38;65.12
4199;BME280;2113;50.946;14.610;2022-09-23T00:08:50;97638.50;;;7.20;65.84
4199;BME280;2113;50.946;14.610;2022-09-23T00:11:19;97635.00;;;7.23;66.87
4199;BME280;2113;50.946;14.610;2022-09-23T00:13:50;97638.38;;;7.27;66.19
4199;BME280;2113;50.946;14.610;2022-09-23T00:16:21;97641.84;;;7.25;65.82
4199;BME280;2113;50.946;14.610;2022-09-23T00:18:50;97638.41;;;7.25;65.63
4199;BME280;2113;50.946;14.610;2022-09-23T00:21:19;97639.34;;;7.19;65.79
4199;BME280;2113;50.946;14.610;2022-09-23T00:27:27;97636.06;;;7.08;65.37
4199;BME280;2113;50.946;14.610;2022-09-23T00:29:55;97628.28;;;7.08;65.47
4199;BME280;2113;50.946;14.610;2022-09-23T00:32:24;97624.13;;;6.99;65.53
4199;BME280;2113;50.946;14.610;2022-09-23T00:34:52;97621.69;;;6.85;65.83
4199;BME280;2113;50.946;14.610;2022-09-23T00:37:20;97622.50;;;6.91;65.65
4199;BME280;2113;50.946;14.610;2022-09-23T00:39:48;97616.53;;;6.84;65.46
4199;BME280;2113;50.946;14.610;2022-09-23T00:42:19;97615.59;;;6.90;64.89
4199;BME280;2113;50.946;14.610;2022-09-23T00:44:49;97615.56;;;6.96;65.01
4199;BME280;2113;50.946;14.610;2022-09-23T00:47:20;97613.91;;;6.90;65.27
4199;BME280;2113;50.946;14.610;2022-09-23T00:49:57;97607.00;;;6.91;65.40
4199;BME280;2113;50.946;14.610;2022-09-23T00:52:28;97608.72;;;6.92;64.99
4199;BME280;2113;50.946;14.610;2022-09-23T00:55:00;97600.97;;;6.92;65.04
4199;BME280;2113;50.946;14.610;2022-09-23T00:57:29;97599.22;;;6.92;65.23
4199;BME280;2113;50.946;14.610;2022-09-23T00:59:58;97603.44;;;6.99;65.01
4199;BME280;2113;50.946;14.610;2022-09-23T01:02:26;97606.19;;;6.84;65.16
4199;BME280;2113;50.946;14.610;2022-09-23T01:04:57;97598.38;;;6.92;64.43
4199;BME280;2113;50.946;14.610;2022-09-23T01:07:25;97594.06;;;6.92;64.88
4199;BME280;2113;50.946;14.610;2022-09-23T01:09:53;97596.66;;;6.91;65.27
4199;BME280;2113;50.946;14.610;2022-09-23T01:12:33;97587.13;;;6.94;65.03
4199;BME280;2113;50.946;14.610;2022-09-23T01:15:11;97581.16;;;6.88;65.15
4199;BME280;2113;50.946;14.610;2022-09-23T01:17:48;97591.69;;;6.75;65.69
4199;BME280;2113;50.946;14.610;2022-09-23T01:20:44;97585.59;;;6.79;65.73
4199;BME280;2113;50.946;14.610;2022-09-23T01:23:40;97586.44;;;6.81;66.26
4199;BME280;2113;50.946;14.610;2022-09-23T01:26:29;97577.75;;;6.85;66.10
4199;BME280;2113;50.946;14.610;2022-09-23T01:29:28;97582.91;;;6.85;66.10
4199;BME280;2113;50.946;14.610;2022-09-23T01:32:08;97581.25;;;6.81;66.01
4199;BME280;2113;50.946;14.610;2022-09-23T01:34:46;97582.91;;;6.85;65.88
4199;BME280;2113;50.946;14.610;2022-09-23T01:37:23;97579.50;;;6.83;65.19
4199;BME280;2113;50.946;14.610;2022-09-23T01:39:58;97579.59;;;6.77;64.73
4199;BME280;2113;50.946;14.610;2022-09-23T01:42:35;97576.09;;;6.81;64.98
4199;BME280;2113;50.946;14.610;2022-09-23T01:45:08;97579.47;;;6.86;65.09
4199;BME280;2113;50.946;14.610;2022-09-23T01:47:43;97576.06;;;6.84;64.50
4199;BME280;2113;50.946;14.610;2022-09-23T01:50:17;97575.16;;;6.85;64.89
4199;BME280;2113;50.946;14.610;2022-09-23T01:53:05;97575.22;;;6.82;65.84
4199;BME280;2113;50.946;14.610;2022-09-23T01:55:40;97571.66;;;6.91;65.41
4199;BME280;2113;50.946;14.610;2022-09-23T01:58:13;97568.19;;;6.92;65.54
4199;BME280;2113;50.946;14.610;2022-09-23T02:00:48;97569.00;;;6.96;65.30
4199;BME280;2113;50.946;14.610;2022-09-23T02:03:21;97563.88;;;6.93;66.38
4199;BME280;2113;50.946;14.610;2022-09-23T02:05:55;97566.38;;;6.99;65.68
4199;BME280;2113;50.946;14.610;2022-09-23T02:08:28;97563.97;;;6.86;65.08
4199;BME280;2113;50.946;14.610;2022-09-23T02:11:02;97560.56;;;6.84;65.28
4199;BME280;2113;50.946;14.610;2022-09-23T02:13:37;97560.53;;;6.86;65.57
4199;BME280;2113;50.946;14.610;2022-09-23T02:16:12;97558.84;;;6.83;65.70
4199;BME280;2113;50.946;14.610;2022-09-23T02:18:46;97553.56;;;6.90;66.50
4199;BME280;2113;50.946;14.610;2022-09-23T02:21:16;97558.75;;;6.90;66.60
4199;BME280;2113;50.946;14.610;2022-09-23T02:23:49;97563.88;;;6.93;67.25
4199;BME280;2113;50.946;14.610;2022-09-23T02:26:22;97557.88;;;6.92;66.60
4199;BME280;2113;50.946;14.610;2022-09-23T02:29:00;97560.50;;;6.88;66.15
4199;BME280;2113;50.946;14.610;2022-09-23T02:31:38;97549.22;;;6.93;66.37
4199;BME280;2113;50.946;14.610;2022-09-23T02:34:29;97550.97;;;6.91;67.03
4199;BME280;2113;50.946;14.610;2022-09-23T02:37:06;97543.09;;;6.99;66.42
4199;BME280;2113;50.946;14.610;2022-09-23T02:39:41;97554.44;;;6.90;66.58
4199;BME280;2113;50.946;14.610;2022-09-23T02:42:19;97556.31;;;6.80;66.67
4199;BME280;2113;50.946;14.610;2022-09-23T02:44:48;97541.56;;;6.85;66.69
4199;BME280;2113;50.946;14.610;2022-09-23T02:47:19;97548.47;;;6.85;67.26
4199;BME280;2113;50.946;14.610;2022-09-23T02:49:51;97548.56;;;6.80;66.91
4199;BME280;2113;50.946;14.610;2022-09-23T02:52:19;97539.91;;;6.81;66.59
4199;BME280;2113;50.946;14.610;2022-09-23T02:54:46;97541.66;;;6.79;66.28
4199;BME280;2113;50.946;14.610;2022-09-23T02:57:14;97540.84;;;6.76;66.53
4199;BME280;2113;50.946;14.610;2022-09-23T02:59:42;97537.41;;;6.75;66.82
4199;BME280;2113;50.946;14.610;2022-09-23T03:05:10;97536.59;;;6.73;67.12
4199;BME280;2113;50.946;14.610;2022-09-23T03:07:50;97529.66;;;6.75;66.83
4199;BME280;2113;50.946;14.610;2022-09-23T03:10:27;97534.00;;;6.72;66.62
4199;BME280;2113;50.946;14.610;2022-09-23T03:13:04;97526.28;;;6.70;67.13
4199;BME280;2113;50.946;14.610;2022-09-23T03:15:42;97522.84;;;6.71;66.38
4199;BME280;2113;50.946;14.610;2022-09-23T03:18:14;97524.66;;;6.63;65.67
4199;BME280;2113;50.946;14.610;2022-09-23T03:20:48;97519.53;;;6.60;66.73
4199;BME280;2113;50.946;14.610;2022-09-23T03:23:20;97527.41;;;6.52;66.66
4199;BME280;2113;50.946;14.610;2022-09-23T03:25:52;97519.53;;;6.60;66.82
4199;BME280;2113;50.946;14.610;2022-09-23T03:28:22;97521.41;;;6.49;67.55
4199;BME280;2113;50.946;14.610;2022-09-23T03:30:51;97512.66;;;6.59;67.26
4199;BME280;2113;50.946;14.610;2022-09-23T03:33:24;97508.25;;;6.67;66.82
4199;BME280;2113;50.946;14.610;2022-09-23T03:35:59;97512.63;;;6.62;66.68
4199;BME280;2113;50.946;14.610;2022-09-23T03:38:48;97503.94;;;6.66;67.22
4199;BME280;2113;50.946;14.610;2022-09-23T03:41:23;97509.09;;;6.69;66.24
4199;BME280;2113;50.946;14.610;2022-09-23T03:43:56;97508.31;;;6.61;65.79
4199;BME280;2113;50.946;14.610;2022-09-23T03:46:25;97498.13;;;6.52;66.05
4199;BME280;2113;50.946;14.610;2022-09-23T03:48:59;97494.75;;;6.46;66.09
4199;BME280;2113;50.946;14.610;2022-09-23T03:51:32;97495.59;;;6.47;65.32
4199;BME280;2113;50.946;14.610;2022-09-23T03:54:00;97497.63;;;6.25;65.74
4199;BME280;2113;50.946;14.610;2022-09-23T03:56:28;97491.63;;;6.23;65.63
4199;BME280;2113;50.946;14.610;2022-09-23T03:58:56;97505.38;;;6.23;65.33
4199;BME280;2113;50.946;14.610;2022-09-23T04:01:24;97501.16;;;6.18;66.40
4199;BME280;2113;50.946;14.610;2022-09-23T04:03:52;97502.81;;;6.22;65.98
4199;BME280;2113;50.946;14.610;2022-09-23T04:06:20;97489.03;;;6.23;66.63
4199;BME280;2113;50.946;14.610;2022-09-23T04:08:49;97491.63;;;6.23;67.36
4199;BME280;2113;50.946;14.610;2022-09-23T04:11:17;97491.56;;;6.24;66.92
4199;BME280;2113;50.946;14.610;2022-09-23T04:13:45;97486.34;;;6.31;66.68
4199;BME280;2113;50.946;14.610;2022-09-23T04:16:13;97490.66;;;6.30;67.06
4199;BME280;2113;50.946;14.610;2022-09-23T04:18:41;97490.66;;;6.30;66.42
4199;BME280;2113;50.946;14.610;2022-09-23T04:21:09;97489.06;;;6.20;66.12
4199;BME280;2113;50.946;14.610;2022-09-23T04:23:37;97482.16;;;6.22;66.23
4199;BME280;2113;50.946;14.610;2022-09-23T04:26:06;97483.09;;;6.16;66.15
4199;BME280;2113;50.946;14.610;2022-09-23T04:28:34;97483.16;;;6.10;66.35
4199;BME280;2113;50.946;14.610;2022-09-23T04:31:03;97483.34;;;5.96;66.09
4199;BME280;2113;50.946;14.610;2022-09-23T04:33:32;97484.13;;;6.01;66.17
4199;BME280;2113;50.946;14.610;2022-09-23T04:36:00;97486.59;;;6.11;65.40
4199;BME280;2113;50.946;14.610;2022-09-23T04:38:28;97472.25;;;5.85;65.53
4199;BME280;2113;50.946;14.610;2022-09-23T04:40:56;97482.59;;;5.82;65.89
4199;BME280;2113;50.946;14.610;2022-09-23T04:43:26;97473.94;;;5.87;65.71
4199;BME280;2113;50.946;14.610;2022-09-23T04:45:57;97473.94;;;5.86;66.03
4199;BME280;2113;50.946;14.610;2022-09-23T04:48:26;97473.94;;;5.84;66.28
4199;BME280;2113;50.946;14.610;2022-09-23T04:51:00;97481.66;;;5.87;65.54
4199;BME280;2113;50.946;14.610;2022-09-23T04:53:31;97466.22;;;5.84;66.00
4199;BME280;2113;50.946;14.610;2022-09-23T04:56:00;97477.28;;;5.97;65.68
4199;BME280;2113;50.946;14.610;2022-09-23T04:58:30;97472.94;;;6.02;65.66
4199;BME280;2113;50.946;14.610;2022-09-23T05:00:58;97481.41;;;6.14;65.98
4199;BME280;2113;50.946;14.610;2022-09-23T05:03:34;97479.69;;;6.13;65.70
4199;BME280;2113;50.946;14.610;2022-09-23T05:06:02;97477.84;;;6.21;65.66
4199;BME280;2113;50.946;14.610;2022-09-23T05:08:30;97482.97;;;6.27;65.38
4199;BME280;2113;50.946;14.610;2022-09-23T05:10:59;97482.75;;;6.44;65.22
4199;BME280;2113;50.946;14.610;2022-09-23T05:13:27;97487.03;;;6.43;65.15
4199;BME280;2113;50.946;14.610;2022-09-23T05:16:01;97478.44;;;6.41;65.63
4199;BME280;2113;50.946;14.610;2022-09-23T05:18:30;97474.09;;;6.46;65.24
4199;BME280;2113;50.946;14.610;2022-09-23T05:20:58;97485.13;;;6.58;65.50
4199;BME280;2113;50.946;14.610;2022-09-23T05:23:26;97478.09;;;6.68;65.87
4199;BME280;2113;50.946;14.610;2022-09-23T05:25:55;97474.59;;;6.72;65.19
4199;BME280;2113;50.946;14.610;2022-09-23T05:28:24;97483.19;;;6.72;65.86
4199;BME280;2113;50.946;14.610;2022-09-23T05:31:01;97484.69;;;6.85;65.68
4199;BME280;2113;50.946;14.610;2022-09-23T05:33:58;97479.25;;;7.04;65.68
4199;BME280;2113;50.946;14.610;2022-09-23T05:36:28;97472.19;;;7.15;65.78
4199;BME280;2113;50.946;14.610;2022-09-23T05:39:03;97480.66;;;7.23;66.05
4199;BME280;2113;50.946;14.610;2022-09-23T05:41:31;97472.72;;;7.36;65.03
4199;BME280;2113;50.946;14.610;2022-09-23T05:44:00;97480.47;;;7.36;64.97
4199;BME280;2113;50.946;14.610;2022-09-23T05:46:30;97475.06;;;7.48;65.88
4199;BME280;2113;50.946;14.610;2022-09-23T05:48:59;97478.41;;;7.55;66.05
4199;BME280;2113;50.946;14.610;2022-09-23T05:51:29;97481.59;;;7.68;65.67
4199;BME280;2113;50.946;14.610;2022-09-23T05:53:59;97476.25;;;7.77;66.19
4199;BME280;2113;50.946;14.610;2022-09-23T05:56:29;97477.63;;;7.95;65.50
4199;BME280;2113;50.946;14.610;2022-09-23T05:58:58;97473.19;;;8.01;65.86
4199;BME280;2113;50.946;14.610;2022-09-23T06:01:30;97481.78;;;8.03;67.11
4199;BME280;2113;50.946;14.610;2022-09-23T06:04:01;97473.47;;;8.31;65.86
4199;BME280;2113;50.946;14.610;2022-09-23T06:06:31;97478.41;;;8.43;66.22
4199;BME280;2113;50.946;14.610;2022-09-23T06:08:59;97476.44;;;8.55;65.42
4199;BME280;2113;50.946;14.610;2022-09-23T06:11:29;97477.03;;;8.68;65.14
4199;BME280;2113;50.946;14.610;2022-09-23T06:13:57;97479.56;;;8.69;65.29
4199;BME280;2113;50.946;14.610;2022-09-23T06:16:27;97470.75;;;8.76;65.22
4199;BME280;2113;50.946;14.610;2022-09-23T06:18:57;97476.56;;;8.86;65.13
4199;BME280;2113;50.946;14.610;2022-09-23T06:21:31;97471.91;;;9.02;65.86
4199;BME280;2113;50.946;14.610;2022-09-23T06:24:00;97475.72;;;9.23;65.45
4199;BME280;2113;50.946;14.610;2022-09-23T06:26:28;97474.22;;;9.47;65.55
4199;BME280;2113;50.946;14.610;2022-09-23T06:28:59;97470.38;;;9.62;65.19
4199;BME280;2113;50.946;14.610;2022-09-23T06:31:28;97471.56;;;9.83;65.29
4199;BME280;2113;50.946;14.610;2022-09-23T06:33:59;97465.97;;;9.97;65.23
4199;BME280;2113;50.946;14.610;2022-09-23T06:36:38;97476.84;;;10.11;65.41
4199;BME280;2113;50.946;14.610;2022-09-23T06:39:10;97472.00;;;10.29;65.32
4199;BME280;2113;50.946;14.610;2022-09-23T06:41:38;97474.72;;;10.55;64.55
4199;BME280;2113;50.946;14.610;2022-09-23T06:44:10;97469.53;;;10.55;64.19
4199;BME280;2113;50.946;14.610;2022-09-23T06:46:38;97471.22;;;10.85;63.99
4199;BME280;2113;50.946;14.610;2022-09-23T06:49:08;97478.50;;;10.73;63.52
4199;BME280;2113;50.946;14.610;2022-09-23T06:51:36;97474.09;;;11.04;62.58
4199;BME280;2113;50.946;14.610;2022-09-23T06:54:04;97469.94;;;10.98;62.76
4199;BME280;2113;50.946;14.610;2022-09-23T06:56:32;97471.09;;;11.43;62.53
4199;BME280;2113;50.946;14.610;2022-09-23T06:59:05;97474.28;;;11.76;62.01
4199;BME280;2113;50.946;14.610;2022-09-23T07:01:34;97457.38;;;16.40;56.97
4199;BME280;2113;50.946;14.610;2022-09-23T07:04:02;97439.47;;;24.28;35.58
4199;BME280;2113;50.946;14.610;2022-09-23T07:06:31;97436.25;;;28.64;29.08
4199;BME280;2113;50.946;14.610;2022-09-23T07:08:59;97441.56;;;31.49;22.39
4199;BME280;2113;50.946;14.610;2022-09-23T07:11:28;97436.03;;;32.41;19.18
4199;BME280;2113;50.946;14.610;2022-09-23T07:13:56;97447.63;;;30.40;22.15
4199;BME280;2113;50.946;14.610;2022-09-23T07:16:24;97447.31;;;33.11;18.45
4199;BME280;2113;50.946;14.610;2022-09-23T07:18:53;97451.06;;;32.80;18.65
4199;BME280;2113;50.946;14.610;2022-09-23T07:21:21;97448.03;;;31.77;19.15
4199;BME280;2113;50.946;14.610;2022-09-23T07:23:51;97449.50;;;31.11;19.69
4199;BME280;2113;50.946;14.610;2022-09-23T07:26:19;97443.09;;;32.72;19.51
4199;BME280;2113;50.946;14.610;2022-09-23T07:28:52;97449.09;;;34.40;17.21
4199;BME280;2113;50.946;14.610;2022-09-23T07:31:21;97441.19;;;36.68;14.50
4199;BME280;2113;50.946;14.610;2022-09-23T07:34:03;97437.38;;;37.28;14.08
4199;BME280;2113;50.946;14.610;2022-09-23T07:36:31;97451.31;;;33.58;17.46
4199;BME280;2113;50.946;14.610;2022-09-23T07:39:04;97443.16;;;36.01;15.86
4199;BME280;2113;50.946;14.610;2022-09-23T07:41:33;97446.00;;;33.86;16.80
4199;BME280;2113;50.946;14.610;2022-09-23T07:44:01;97441.44;;;33.87;17.28
4199;BME280;2113;50.946;14.610;2022-09-23T07:46:33;97450.06;;;31.60;19.51
4199;BME280;2113;50.946;14.610;2022-09-23T07:49:03;97446.34;;;34.68;17.03
4199;BME280;2113;50.946;14.610;2022-09-23T07:51:33;97447.75;;;35.12;16.16
4199;BME280;2113;50.946;14.610;2022-09-23T07:54:05;97440.84;;;36.04;15.51
4199;BME280;2113;50.946;14.610;2022-09-23T07:56:35;97439.13;;;37.09;15.15
4199;BME280;2113;50.946;14.610;2022-09-23T07:59:04;97448.75;;;32.62;18.27
4199;BME280;2113;50.946;14.610;2022-09-23T08:01:36;97459.94;;;30.02;20.59
4199;BME280;2113;50.946;14.610;2022-09-23T08:04:06;97454.38;;;33.33;17.26
4199;BME280;2113;50.946;14.610;2022-09-23T08:06:39;97448.31;;;34.87;16.43
4199;BME280;2113;50.946;14.610;2022-09-23T08:09:08;97450.19;;;33.67;17.92
4199;BME280;2113;50.946;14.610;2022-09-23T08:11:37;97446.59;;;35.35;16.39
4199;BME280;2113;50.946;14.610;2022-09-23T08:14:08;97443.47;;;33.85;17.31
4199;BME280;2113;50.946;14.610;2022-09-23T08:16:36;97447.56;;;31.59;18.99
4199;BME280;2113;50.946;14.610;2022-09-23T08:19:05;97441.97;;;32.81;18.99
4199;BME280;2113;50.946;14.610;2022-09-23T08:21:35;97447.75;;;28.57;21.71
4199;BME280;2113;50.946;14.610;2022-09-23T08:24:05;97445.50;;;29.70;21.34
4199;BME280;2113;50.946;14.610;2022-09-23T08:26:34;97450.47;;;30.39;20.88
4199;BME280;2113;50.946;14.610;2022-09-23T08:29:03;97456.53;;;29.18;22.30
4199;BME280;2113;50.946;14.610;2022-09-23T08:31:31;97454.22;;;31.63;19.87
4199;BME280;2113;50.946;14.610;2022-09-23T08:33:59;97454.56;;;31.60;19.77
4199;BME280;2113;50.946;14.610;2022-09-23T08:36:28;97454.19;;;30.13;19.74
4199;BME280;2113;50.946;14.610;2022-09-23T08:38:55;97456.00;;;26.10;25.58
4199;BME280;2113;50.946;14.610;2022-09-23T08:41:30;97462.19;;;25.52;25.84
4199;BME280;2113;50.946;14.610;2022-09-23T08:44:08;97462.41;;;23.45;28.10
4199;BME280;2113;50.946;14.610;2022-09-23T08:46:42;97449.31;;;25.38;26.67
4199;BME280;2113;50.946;14.610;2022-09-23T08:49:16;97453.44;;;26.56;25.01
4199;BME280;2113;50.946;14.610;2022-09-23T08:51:47;97448.72;;;25.64;25.98
4199;BME280;2113;50.946;14.610;2022-09-23T08:54:16;97447.78;;;25.65;25.02
4199;BME280;2113;50.946;14.610;2022-09-23T08:56:47;97444.81;;;25.68;25.59
4199;BME280;2113;50.946;14.610;2022-09-23T08:59:23;97446.13;;;23.92;27.64
4199;BME280;2113;50.946;14.610;2022-09-23T09:01:57;97451.00;;;24.38;27.31
4199;BME280;2113;50.946;14.610;2022-09-23T09:04:38;97440.84;;;24.53;27.28
4199;BME280;2113;50.946;14.610;2022-09-23T09:07:12;97446.69;;;23.21;28.47
4199;BME280;2113;50.946;14.610;2022-09-23T09:10:04;97441.94;;;24.91;27.23
4199;BME280;2113;50.946;14.610;2022-09-23T09:12:40;97439.47;;;24.59;28.72
4199;BME280;2113;50.946;14.610;2022-09-23T09:15:13;97450.81;;;23.46;29.27
4199;BME280;2113;50.946;14.610;2022-09-23T09:17:48;97438.50;;;23.98;29.08
4199;BME280;2113;50.946;14.610;2022-09-23T09:20:21;97443.84;;;24.60;26.68
4199;BME280;2113;50.946;14.610;2022-09-23T09:22:54;97440.84;;;24.94;28.16
4199;BME280;2113;50.946;14.610;2022-09-23T09:25:36;97436.53;;;26.37;25.52
4199;BME280;2113;50.946;14.610;2022-09-23T09:28:12;97439.97;;;24.84;27.09
4199;BME280;2113;50.946;14.610;2022-09-23T09:30:43;97436.59;;;23.68;28.58
4199;BME280;2113;50.946;14.610;2022-09-23T09:33:43;97433.56;;;24.96;27.59
4199;BME280;2113;50.946;14.610;2022-09-23T09:36:20;97432.84;;;22.51;30.81
4199;BME280;2113;50.946;14.610;2022-09-23T09:38:56;97438.94;;;21.24;32.59
4199;BME280;2113;50.946;14.610;2022-09-23T09:41:26;97429.66;;;21.19;31.98
4199;BME280;2113;50.946;14.610;2022-09-23T09:43:58;97411.47;;;23.30;31.11
4199;BME280;2113;50.946;14.610;2022-09-23T09:46:39;97422.72;;;23.22;29.36
4199;BME280;2113;50.946;14.610;2022-09-23T09:49:18;97420.47;;;24.23;27.75
4199;BME280;2113;50.946;14.610;2022-09-23T09:52:10;97410.63;;;24.14;26.40
4199;BME280;2113;50.946;14.610;2022-09-23T09:54:38;97410.25;;;24.28;27.91
4199;BME280;2113;50.946;14.610;2022-09-23T09:57:16;97420.53;;;22.16;30.42
4199;BME280;2113;50.946;14.610;2022-09-23T09:59:45;97418.75;;;22.51;31.70
4199;BME280;2113;50.946;14.610;2022-09-23T10:02:23;97414.75;;;22.67;31.52
4199;BME280;2113;50.946;14.610;2022-09-23T10:04:55;97410.25;;;23.55;28.70
4199;BME280;2113;50.946;14.610;2022-09-23T10:07:26;97409.13;;;23.37;29.77
4199;BME280;2113;50.946;14.610;2022-09-23T10:09:55;97414.75;;;23.22;30.68
4199;BME280;2113;50.946;14.610;2022-09-23T10:12:42;97399.09;;;23.61;30.50
4199;BME280;2113;50.946;14.610;2022-09-23T10:15:26;97406.44;;;23.16;30.49
4199;BME280;2113;50.946;14.610;2022-09-23T10:17:58;97403.09;;;22.02;30.29
4199;BME280;2113;50.946;14.610;2022-09-23T10:20:33;97405.66;;;20.24;34.08
4199;BME280;2113;50.946;14.610;2022-09-23T10:23:05;97408.28;;;22.04;34.24
4199;BME280;2113;50.946;14.610;2022-09-23T10:25:35;97395.72;;;24.01;29.52
4199;BME280;2113;50.946;14.610;2022-09-23T10:28:31;97392.22;;;24.82;28.02
4199;BME280;2113;50.946;14.610;2022-09-23T10:31:08;97393.81;;;23.08;28.02
4199;BME280;2113;50.946;14.610;2022-09-23T10:33:43;97396.25;;;23.95;27.84
4199;BME280;2113;50.946;14.610;2022-09-23T10:36:14;97397.50;;;21.36;29.79
4199;BME280;2113;50.946;14.610;2022-09-23T10:38:43;97401.53;;;19.68;36.67
4199;BME280;2113;50.946;14.610;2022-09-23T10:41:17;97400.00;;;19.79;35.13
4199;BME280;2113;50.946;14.610;2022-09-23T10:44:18;97408.09;;;18.83;36.15
4199;BME280;2113;50.946;14.610;2022-09-23T10:47:13;97387.31;;;22.68;29.22
4199;BME280;2113;50.946;14.610;2022-09-23T10:50:03;97384.06;;;22.20;28.95
4199;BME280;2113;50.946;14.610;2022-09-23T10:52:42;97395.25;;;21.07;33.34
4199;BME280;2113;50.946;14.610;2022-09-23T10:55:21;97396.03;;;19.71;34.43
4199;BME280;2113;50.946;14.610;2022-09-23T10:58:27;97404.50;;;18.42;36.86
4199;BME280;2113;50.946;14.610;2022-09-23T11:01:07;97391.56;;;17.96;37.94
4199;BME280;2113;50.946;14.610;2022-09-23T11:04:07;97393.97;;;17.70;37.32
4199;BME280;2113;50.946;14.610;2022-09-23T11:06:47;97392.59;;;17.34;36.99
4199;BME280;2113;50.946;14.610;2022-09-23T11:09:29;97383.44;;;18.42;37.36
4199;BME280;2113;50.946;14.610;2022-09-23T11:12:08;97375.97;;;18.90;35.84
4199;BME280;2113;50.946;14.610;2022-09-23T11:14:50;97368.63;;;20.00;34.28
4199;BME280;2113;50.946;14.610;2022-09-23T11:17:30;97363.44;;;20.24;35.39
4199;BME280;2113;50.946;14.610;2022-09-23T11:20:18;97356.91;;;19.91;33.20
4199;BME280;2113;50.946;14.610;2022-09-23T11:23:11;97363.03;;;19.53;34.03
4199;BME280;2113;50.946;14.610;2022-09-23T11:25:49;97365.84;;;18.84;34.46
4199;BME280;2113;50.946;14.610;2022-09-23T11:28:32;97360.59;;;18.84;35.40
4199;BME280;2113;50.946;14.610;2022-09-23T11:31:11;97355.19;;;21.72;32.81
4199;BME280;2113;50.946;14.610;2022-09-23T11:34:02;97351.31;;;20.45;31.91
4199;BME280;2113;50.946;14.610;2022-09-23T11:36:37;97341.88;;;19.14;33.03
4199;BME280;2113;50.946;14.610;2022-09-23T11:39:12;97332.22;;;19.92;30.56
4199;BME280;2113;50.946;14.610;2022-09-23T11:41:42;97338.75;;;20.12;32.09
4199;BME280;2113;50.946;14.610;2022-09-23T11:44:14;97333.22;;;19.00;34.94
4199;BME280;2113;50.946;14.610;2022-09-23T11:46:48;97328.69;;;19.02;33.49
4199;BME280;2113;50.946;14.610;2022-09-23T11:49:21;97316.19;;;19.95;31.71
4199;BME280;2113;50.946;14.610;2022-09-23T11:52:02;97315.59;;;21.59;32.46
4199;BME280;2113;50.946;14.610;2022-09-23T11:54:39;97311.31;;;21.22;29.20
4199;BME280;2113;50.946;14.610;2022-09-23T11:57:21;97302.47;;;20.64;30.84
4199;BME280;2113;50.946;14.610;2022-09-23T11:59:54;97319.16;;;19.52;32.92
4199;BME280;2113;50.946;14.610;2022-09-23T12:02:27;97307.31;;;19.58;33.96
4199;BME280;2113;50.946;14.610;2022-09-23T12:05:02;97307.31;;;19.19;32.86
4199;BME280;2113;50.946;14.610;2022-09-23T12:07:42;97307.53;;;20.30;33.44
4199;BME280;2113;50.946;14.610;2022-09-23T12:10:15;97302.16;;;21.15;32.30
4199;BME280;2113;50.946;14.610;2022-09-23T12:12:50;97300.69;;;21.11;30.86
4199;BME280;2113;50.946;14.610;2022-09-23T12:15:33;97300.09;;;20.72;31.00
4199;BME280;2113;50.946;14.610;2022-09-23T12:18:16;97293.09;;;20.23;32.47
4199;BME280;2113;50.946;14.610;2022-09-23T12:24:26;97298.81;;;20.17;33.63
4199;BME280;2113;50.946;14.610;2022-09-23T12:27:03;97301.38;;;20.05;33.11
4199;BME280;2113;50.946;14.610;2022-09-23T12:29:34;97296.56;;;19.73;32.30
4199;BME280;2113;50.946;14.610;2022-09-23T12:32:05;97294.84;;;18.68;33.43
4199;BME280;2113;50.946;14.610;2022-09-23T12:34:39;97298.06;;;19.26;33.53
4199;BME280;2113;50.946;14.610;2022-09-23T12:37:22;97298.81;;;19.80;32.69
4199;BME280;2113;50.946;14.610;2022-09-23T12:39:51;97300.13;;;18.41;34.78
4199;BME280;2113;50.946;14.610;2022-09-23T12:42:21;97294.03;;;18.41;36.85
4199;BME280;2113;50.946;14.610;2022-09-23T12:45:18;97291.16;;;18.58;38.17
4199;BME280;2113;50.946;14.610;2022-09-23T12:47:46;97289.38;;;18.31;37.55
4199;BME280;2113;50.946;14.610;2022-09-23T12:54:19;97283.34;;;17.88;38.15
4199;BME280;2113;50.946;14.610;2022-09-23T12:57:00;97279.06;;;18.41;36.04
4199;BME280;2113;50.946;14.610;2022-09-23T12:59:32;97281.00;;;18.25;35.73
4199;BME280;2113;50.946;14.610;2022-09-23T13:02:26;97282.41;;;18.57;37.39
4199;BME280;2113;50.946;14.610;2022-09-23T13:05:02;97277.28;;;18.69;35.76
4199;BME280;2113;50.946;14.610;2022-09-23T13:07:48;97268.38;;;18.44;35.52
4199;BME280;2113;50.946;14.610;2022-09-23T13:10:28;97263.47;;;18.38;36.58
4199;BME280;2113;50.946;14.610;2022-09-23T13:12:58;97259.78;;;18.68;37.13
4199;BME280;2113;50.946;14.610;2022-09-23T13:15:31;97256.28;;;18.94;37.19
4199;BME280;2113;50.946;14.610;2022-09-23T13:21:15;97242.72;;;18.73;36.93
4199;BME280;2113;50.946;14.610;2022-09-23T13:24:17;97253.03;;;17.53;37.36
4199;BME280;2113;50.946;14.610;2022-09-23T13:26:47;97247.00;;;18.22;36.81
4199;BME280;2113;50.946;14.610;2022-09-23T13:29:20;97239.25;;;18.33;36.96
4199;BME280;2113;50.946;14.610;2022-09-23T13:31:52;97231.00;;;18.25;35.33
4199;BME280;2113;50.946;14.610;2022-09-23T13:34:26;97234.97;;;17.61;36.69
4199;BME280;2113;50.946;14.610;2022-09-23T13:36:57;97221.09;;;19.34;35.44
4199;BME280;2113;50.946;14.610;2022-09-23T13:39:27;97225.13;;;18.74;34.73
4199;BME280;2113;50.946;14.610;2022-09-23T13:41:59;97219.59;;;19.43;34.94
4199;BME280;2113;50.946;14.610;2022-09-23T13:44:28;97225.81;;;18.90;35.74
4199;BME280;2113;50.946;14.610;2022-09-23T13:46:58;97228.66;;;18.87;36.87
4199;BME280;2113;50.946;14.610;2022-09-23T13:49:32;97218.94;;;18.75;36.74
4199;BME280;2113;50.946;14.610;2022-09-23T13:52:02;97214.25;;;19.19;36.43
4199;BME280;2113;50.946;14.610;2022-09-23T13:54:31;97220.59;;;18.76;36.35
4199;BME280;2113;50.946;14.610;2022-09-23T13:57:02;97224.25;;;18.20;35.40
4199;BME280;2113;50.946;14.610;2022-09-23T13:59:36;97218.47;;;18.15;36.41
4199;BME280;2113;50.946;14.610;2022-09-23T14:02:10;97219.00;;;17.93;37.57
4199;BME280;2113;50.946;14.610;2022-09-23T14:04:38;97219.34;;;18.29;38.29
4199;BME280;2113;50.946;14.610;2022-09-23T14:07:07;97212.19;;;18.04;36.83